Time;durP1;ratioP1;P1;durP2;ratioP2;P2;SDS_P1;SDS_P2;PMS_P1;PMS_P2;Temp;Humidity;BMP_temperature;BMP_pressure;BME280_temperature;BME280_humidity;BME280_pressure;Samples;Min_cycle;Max_cycle;Signal;HPM_P1;HPM_P2
2022/02/07 00:00:36;;;;;;;2.75;1.52;;;6.10;99.90;;;;;;5067685;28;20501;-48
2022/02/07 00:05:41;;;;;;;5.03;2.47;;;6.40;99.90;;;;;;5083855;28;20268;-48
2022/02/07 00:08:10;;;;;;;2.35;1.63;;;6.60;99.90;;;;;;5081666;28;20206;-48
2022/02/07 00:10:40;;;;;;;3.92;2.38;;;6.60;99.90;;;;;;5081402;28;20229;-47
2022/02/07 00:13:08;;;;;;;2.45;1.73;;;6.50;99.90;;;;;;5081234;28;20453;-48
2022/02/07 00:15:36;;;;;;;2.75;1.67;;;6.40;99.90;;;;;;5081344;28;20215;-50
2022/02/07 00:18:07;;;;;;;2.28;1.23;;;6.50;99.90;;;;;;5081379;28;20201;-50
2022/02/07 00:20:35;;;;;;;4.90;1.77;;;6.60;99.90;;;;;;5080995;28;20509;-45
2022/02/07 00:23:03;;;;;;;2.90;1.42;;;6.60;99.90;;;;;;5080806;28;20528;-53
2022/02/07 00:25:31;;;;;;;2.17;1.45;;;6.60;99.90;;;;;;5080636;28;20257;-48
2022/02/07 00:27:58;;;;;;;4.18;1.98;;;6.40;99.90;;;;;;5080817;28;20207;-49
2022/02/07 00:30:25;;;;;;;1.25;1.10;;;6.30;99.90;;;;;;5080358;28;20215;-50
2022/02/07 00:32:52;;;;;;;2.10;1.65;;;6.30;99.90;;;;;;5080638;28;20195;-47
2022/02/07 00:35:23;;;;;;;3.40;1.80;;;6.10;99.90;;;;;;5080351;28;20203;-45
2022/02/07 00:37:54;;;;;;;2.47;1.15;;;6.30;99.90;;;;;;5080907;28;20204;-45
2022/02/07 00:43:02;;;;;;;1.95;1.38;;;6.30;99.90;;;;;;5080536;28;20207;-49
2022/02/07 00:48:06;;;;;;;2.88;1.80;;;6.40;99.90;;;;;;5080455;28;20206;-48
2022/02/07 00:50:34;;;;;;;4.20;1.88;;;6.50;99.90;;;;;;5080650;28;20276;-48
2022/02/07 00:53:02;;;;;;;1.80;1.55;;;6.40;99.90;;;;;;5080130;28;20198;-47
2022/02/07 00:55:30;;;;;;;1.83;1.33;;;6.20;99.90;;;;;;5080242;28;20427;-45
2022/02/07 00:57:58;;;;;;;7.72;1.52;;;5.90;99.90;;;;;;5079986;28;20198;-50
2022/02/07 01:00:25;;;;;;;2.17;2.00;;;5.80;99.90;;;;;;5080098;28;20208;-47
2022/02/07 01:02:52;;;;;;;2.55;1.58;;;5.80;99.90;;;;;;5079985;28;20209;-47
2022/02/07 01:05:20;;;;;;;2.13;1.92;;;5.80;99.90;;;;;;5080129;28;20210;-51
2022/02/07 01:07:50;;;;;;;2.05;1.85;;;6.10;99.90;;;;;;5080203;28;20202;-44
2022/02/07 01:10:25;;;;;;;3.35;1.95;;;6.30;99.90;;;;;;5079889;28;20218;-47
2022/02/07 01:21:15;;;;;;;2.47;2.00;;;6.40;99.90;;;;;;5079817;28;20513;-45
2022/02/07 01:48:29;;;;;;;3.13;2.22;;;5.40;99.90;;;;;;5059396;28;20206;-54
2022/02/07 01:51:09;;;;;;;3.30;2.35;;;5.40;99.90;;;;;;5060405;28;20276;-53
2022/02/07 01:56:28;;;;;;;2.70;1.90;;;5.40;99.90;;;;;;5059041;28;20269;-45
2022/02/07 01:58:55;;;;;;;3.55;1.45;;;5.30;99.90;;;;;;5059438;28;20498;-46
2022/02/07 02:01:23;;;;;;;1.92;1.35;;;5.20;99.90;;;;;;5058930;28;20437;-49
2022/02/07 02:03:50;;;;;;;2.17;1.35;;;5.20;99.90;;;;;;5059397;28;20443;-46
2022/02/07 02:06:17;;;;;;;3.13;1.80;;;5.20;99.90;;;;;;5058913;28;20229;-47
2022/02/07 02:08:44;;;;;;;2.78;1.40;;;5.20;99.90;;;;;;5059688;28;20206;-45
2022/02/07 02:11:12;;;;;;;3.92;2.20;;;5.30;99.90;;;;;;5058827;28;20245;-47
2022/02/07 02:14:17;;;;;;;2.72;1.58;;;5.30;99.90;;;;;;5059611;28;20199;-44
2022/02/07 02:16:37;;;;;;;1.50;1.40;;;5.30;99.90;;;;;;5056959;28;20226;-49
2022/02/07 02:38:27;;;;;;;2.38;1.83;;;5.70;99.90;;;;;;5078822;28;20195;-51
2022/02/07 02:46:29;;;;;;;1.60;1.13;;;5.20;99.90;;;;;;5079205;28;20221;-48
2022/02/07 02:49:01;;;;;;;1.02;0.75;;;5.10;99.90;;;;;;5078943;28;20199;-52
2022/02/07 02:51:29;;;;;;;0.40;0.40;;;4.90;99.90;;;;;;5079026;28;20228;-50
2022/02/07 02:53:57;;;;;;;0.55;0.55;;;4.80;99.90;;;;;;5078655;28;20228;-52
2022/02/07 02:56:24;;;;;;;0.60;0.50;;;4.80;99.90;;;;;;5060978;28;20225;-47
2022/02/07 02:58:52;;;;;;;0.77;0.55;;;4.80;99.90;;;;;;5079249;28;20280;-51
2022/02/07 03:01:20;;;;;;;1.83;0.80;;;4.90;99.90;;;;;;5082213;28;20195;-46
2022/02/07 03:03:47;;;;;;;0.50;0.40;;;5.00;99.90;;;;;;5082454;28;20513;-48
2022/02/07 03:06:14;;;;;;;0.90;0.68;;;4.90;99.90;;;;;;5082093;28;20222;-45
2022/02/07 03:08:42;;;;;;;0.50;0.40;;;4.90;99.90;;;;;;5082713;28;20313;-46
2022/02/07 03:11:15;;;;;;;0.40;0.40;;;4.90;99.90;;;;;;5081806;28;20259;-53
2022/02/07 03:19:01;;;;;;;0.70;0.50;;;4.80;99.90;;;;;;5082194;28;20203;-47
2022/02/07 03:21:28;;;;;;;0.30;0.30;;;4.80;99.90;;;;;;5081702;28;20247;-49
2022/02/07 03:23:56;;;;;;;1.08;0.47;;;4.90;99.90;;;;;;5082217;28;20222;-51
2022/02/07 03:26:23;;;;;;;0.40;0.40;;;4.80;99.90;;;;;;5081564;28;20268;-48
2022/02/07 03:28:51;;;;;;;2.08;0.70;;;4.90;99.90;;;;;;5081946;28;20263;-48
2022/02/07 03:31:20;;;;;;;0.75;0.75;;;4.90;99.90;;;;;;5081743;28;20428;-47
2022/02/07 03:33:47;;;;;;;0.43;0.43;;;4.70;99.90;;;;;;5081992;28;20282;-48
2022/02/07 03:36:15;;;;;;;0.60;0.47;;;4.70;99.90;;;;;;5082507;28;20424;-49
2022/02/07 03:38:44;;;;;;;0.75;0.60;;;4.70;99.90;;;;;;5082222;28;20198;-47
2022/02/07 03:41:12;;;;;;;6.47;2.85;;;4.60;99.90;;;;;;5081460;28;20201;-49
2022/02/07 03:43:39;;;;;;;0.88;0.82;;;4.50;99.90;;;;;;5081796;28;20530;-52
2022/02/07 03:46:07;;;;;;;0.60;0.60;;;4.50;99.90;;;;;;5081691;28;20229;-47
2022/02/07 03:48:34;;;;;;;0.85;0.63;;;4.40;99.90;;;;;;5081730;28;20198;-47
2022/02/07 03:51:02;;;;;;;0.52;0.50;;;4.40;99.90;;;;;;5081742;28;20339;-51
2022/02/07 03:53:30;;;;;;;0.98;0.80;;;4.50;99.90;;;;;;5081646;28;20205;-47
2022/02/07 03:55:57;;;;;;;0.85;0.77;;;4.60;99.90;;;;;;5081353;28;20230;-53
2022/02/07 03:58:24;;;;;;;1.98;1.08;;;4.60;99.90;;;;;;5082201;28;20213;-48
2022/02/07 04:00:54;;;;;;;0.55;0.52;;;4.60;99.90;;;;;;5083421;28;20233;-49
2022/02/07 04:03:26;;;;;;;1.70;1.15;;;4.50;99.90;;;;;;5083032;28;20205;-51
2022/02/07 04:06:00;;;;;;;2.53;1.80;;;4.50;99.90;;;;;;5065261;28;20275;-49
2022/02/07 04:08:34;;;;;;;1.42;0.98;;;4.50;99.90;;;;;;5081035;28;20215;-53
2022/02/07 04:11:27;;;;;;;0.80;0.80;;;4.50;99.90;;;;;;5080598;28;20220;-50
2022/02/07 04:13:56;;;;;;;9.23;1.48;;;4.40;99.90;;;;;;5081290;28;20204;-51
2022/02/07 04:16:27;;;;;;;1.85;1.40;;;4.40;99.90;;;;;;5081179;28;20479;-50
2022/02/07 04:21:24;;;;;;;0.70;0.65;;;4.40;99.90;;;;;;5080998;28;20224;-46
2022/02/07 04:23:51;;;;;;;1.50;1.15;;;4.40;99.90;;;;;;5080814;28;20409;-47
2022/02/07 04:26:19;;;;;;;2.17;1.23;;;4.40;99.90;;;;;;5080539;28;20228;-48
2022/02/07 04:28:46;;;;;;;3.63;1.17;;;4.40;99.90;;;;;;5063082;28;20296;-48
2022/02/07 04:31:13;;;;;;;0.90;0.90;;;4.40;99.90;;;;;;5075300;28;20295;-53
2022/02/07 04:33:40;;;;;;;0.63;0.63;;;4.40;99.90;;;;;;5081078;28;20241;-46
2022/02/07 04:36:08;;;;;;;2.78;1.45;;;4.40;99.90;;;;;;5080694;28;20221;-45
2022/02/07 04:38:35;;;;;;;3.70;0.93;;;4.50;99.90;;;;;;5081081;28;20202;-46
2022/02/07 04:41:06;;;;;;;3.25;1.02;;;4.50;99.90;;;;;;5071284;28;20205;-46
2022/02/07 04:43:34;;;;;;;0.93;0.75;;;4.60;99.90;;;;;;5080822;28;20190;-49
2022/02/07 04:46:30;;;;;;;2.83;1.00;;;4.50;99.90;;;;;;5076403;28;20248;-51
2022/02/07 04:51:47;;;;;;;3.55;0.82;;;4.40;99.90;;;;;;5075350;28;20540;-47
2022/02/07 04:54:33;;;;;;;0.90;0.90;;;4.40;99.90;;;;;;5073146;28;20204;-48
2022/02/07 05:15:55;;;;;;;2.97;0.80;;;4.20;99.90;;;;;;5080311;28;20218;-51
2022/02/07 05:18:25;;;;;;;1.85;0.65;;;4.20;99.90;;;;;;5079816;28;20259;-44
2022/02/07 05:20:52;;;;;;;2.17;0.95;;;4.20;99.90;;;;;;5077641;28;20205;-45
2022/02/07 05:23:19;;;;;;;2.45;0.57;;;4.00;99.90;;;;;;5079018;28;20684;-46
2022/02/07 05:25:46;;;;;;;1.38;1.10;;;4.00;99.90;;;;;;5079795;28;20222;-45
2022/02/07 05:28:13;;;;;;;0.70;0.70;;;3.90;99.90;;;;;;5079629;28;20202;-48
2022/02/07 05:30:40;;;;;;;0.57;0.57;;;3.80;99.90;;;;;;5079759;28;20833;-47
2022/02/07 05:33:08;;;;;;;0.90;0.90;;;3.90;99.90;;;;;;5079324;28;20408;-51
2022/02/07 05:35:36;;;;;;;0.70;0.70;;;3.90;99.90;;;;;;5079871;28;20225;-45
2022/02/07 05:38:07;;;;;;;1.40;1.05;;;3.90;99.90;;;;;;5079334;28;20227;-47
2022/02/07 05:40:41;;;;;;;2.13;1.13;;;4.00;99.90;;;;;;5079961;28;20372;-46
2022/02/07 05:43:09;;;;;;;0.57;0.57;;;4.10;99.90;;;;;;5080083;28;20541;-46
2022/02/07 05:45:36;;;;;;;1.00;0.90;;;4.00;99.90;;;;;;5080191;28;20228;-48
2022/02/07 05:48:04;;;;;;;2.85;0.73;;;4.00;99.90;;;;;;5081103;28;20336;-50
2022/02/07 05:50:32;;;;;;;5.95;1.10;;;3.90;99.90;;;;;;5062937;28;20197;-49
2022/02/07 05:52:59;;;;;;;1.15;0.80;;;3.80;99.90;;;;;;5079967;28;20208;-45
2022/02/07 05:55:31;;;;;;;0.80;0.65;;;3.80;99.90;;;;;;5079586;28;20432;-49
2022/02/07 05:57:59;;;;;;;0.50;0.50;;;3.80;99.90;;;;;;5079427;28;20200;-51
2022/02/07 06:00:32;;;;;;;1.77;1.10;;;3.70;99.90;;;;;;5079220;28;20512;-46
2022/02/07 06:03:00;;;;;;;1.00;0.90;;;3.60;99.90;;;;;;5079493;28;20272;-50
2022/02/07 06:05:31;;;;;;;2.15;0.88;;;3.50;99.90;;;;;;5079696;28;20223;-49
2022/02/07 06:07:58;;;;;;;0.60;0.60;;;3.40;99.90;;;;;;5080068;28;20458;-46
2022/02/07 06:10:25;;;;;;;1.17;1.02;;;3.50;99.90;;;;;;5079266;28;20284;-51
2022/02/07 06:12:53;;;;;;;0.80;0.80;;;3.50;99.90;;;;;;5079865;28;20200;-49
2022/02/07 06:15:21;;;;;;;0.65;0.60;;;3.50;99.90;;;;;;5079698;28;20197;-50
2022/02/07 06:17:51;;;;;;;1.67;0.60;;;3.40;99.90;;;;;;5081224;28;20233;-46
2022/02/07 06:20:19;;;;;;;1.58;0.90;;;3.40;99.90;;;;;;5082290;28;20407;-53
2022/02/07 06:22:47;;;;;;;1.20;1.10;;;3.40;99.90;;;;;;5079032;28;20201;-46
2022/02/07 06:25:15;;;;;;;2.35;0.82;;;3.40;99.90;;;;;;5078736;28;20207;-45
2022/02/07 06:27:43;;;;;;;1.90;0.70;;;3.50;99.90;;;;;;5079502;28;20239;-45
2022/02/07 06:30:10;;;;;;;1.13;0.75;;;3.50;99.90;;;;;;5079002;28;20565;-44
2022/02/07 06:32:39;;;;;;;1.33;1.08;;;3.50;99.90;;;;;;5078890;28;20248;-51
2022/02/07 06:35:07;;;;;;;1.48;0.80;;;3.50;99.90;;;;;;5082542;28;20396;-51
2022/02/07 06:37:35;;;;;;;0.85;0.85;;;3.60;99.90;;;;;;5083138;28;20243;-47
2022/02/07 06:40:04;;;;;;;1.80;1.10;;;3.50;99.90;;;;;;5083181;28;20244;-45
2022/02/07 06:42:31;;;;;;;2.60;1.25;;;3.50;99.90;;;;;;5082781;28;20247;-45
2022/02/07 06:44:59;;;;;;;2.88;0.82;;;3.40;99.90;;;;;;5082957;28;20357;-47
2022/02/07 06:47:28;;;;;;;0.68;0.68;;;3.40;99.90;;;;;;5082786;28;20292;-49
2022/02/07 06:49:55;;;;;;;3.05;1.17;;;3.40;99.90;;;;;;5083311;28;20254;-45
2022/02/07 06:52:24;;;;;;;1.02;0.82;;;3.40;99.90;;;;;;5082641;28;20338;-46
2022/02/07 06:54:51;;;;;;;1.00;0.90;;;3.40;99.90;;;;;;5082426;28;20196;-48
2022/02/07 06:57:21;;;;;;;2.97;0.88;;;3.50;99.90;;;;;;5082886;28;20243;-48
2022/02/07 06:59:49;;;;;;;3.90;1.38;;;3.50;99.90;;;;;;5082895;28;20206;-46
2022/02/07 07:02:19;;;;;;;1.00;0.90;;;3.60;99.90;;;;;;5082662;28;20221;-47
2022/02/07 07:04:48;;;;;;;5.15;1.17;;;3.60;99.90;;;;;;5082650;28;20549;-46
2022/02/07 07:07:18;;;;;;;0.80;0.70;;;3.70;99.90;;;;;;5082468;28;20237;-47
2022/02/07 07:09:46;;;;;;;4.32;0.80;;;3.70;99.90;;;;;;5082653;28;20467;-46
2022/02/07 07:12:13;;;;;;;4.10;1.35;;;3.70;99.90;;;;;;5082309;28;20224;-47
2022/02/07 07:14:50;;;;;;;4.32;1.13;;;3.80;99.90;;;;;;5082899;28;20204;-48
2022/02/07 07:17:18;;;;;;;0.45;0.45;;;3.80;99.90;;;;;;5082273;28;20450;-46
2022/02/07 07:19:45;;;;;;;0.65;0.65;;;3.70;99.90;;;;;;5084108;28;20205;-50
2022/02/07 07:22:14;;;;;;;1.00;0.88;;;3.60;99.90;;;;;;5085059;28;20251;-47
2022/02/07 07:24:42;;;;;;;3.40;1.20;;;3.50;99.90;;;;;;5083075;28;20205;-45
2022/02/07 07:27:12;;;;;;;1.42;1.23;;;3.60;99.90;;;;;;5084417;28;20240;-48
2022/02/07 07:29:43;;;;;;;3.63;1.35;;;3.60;99.90;;;;;;5082539;28;20239;-52
2022/02/07 07:32:11;;;;;;;1.77;1.67;;;3.40;99.90;;;;;;5081799;28;20212;-46
2022/02/07 07:34:38;;;;;;;1.58;1.48;;;3.20;99.90;;;;;;5082661;28;20495;-48
2022/02/07 07:37:06;;;;;;;1.75;0.90;;;3.10;99.90;;;;;;5081616;28;20220;-51
2022/02/07 07:39:34;;;;;;;0.98;0.75;;;3.00;99.90;;;;;;5082141;28;20234;-48
2022/02/07 07:42:03;;;;;;;4.90;1.30;;;2.90;99.90;;;;;;5081661;28;20261;-51
2022/02/07 07:44:34;;;;;;;2.97;1.73;;;2.90;99.90;;;;;;5081593;28;20264;-47
2022/02/07 07:47:11;;;;;;;2.25;1.35;;;3.00;99.90;;;;;;5081460;28;20286;-48
2022/02/07 07:49:55;;;;;;;2.35;0.98;;;3.00;99.90;;;;;;5081751;28;20253;-51
2022/02/07 07:52:40;;;;;;;1.42;1.20;;;3.00;99.90;;;;;;5081161;28;20272;-45
2022/02/07 08:01:16;;;;;;;1.17;1.05;;;3.10;99.90;;;;;;5081283;28;20235;-46
2022/02/07 08:03:50;;;;;;;3.70;2.15;;;3.40;99.90;;;;;;5076109;28;20448;-46
2022/02/07 08:06:22;;;;;;;1.98;1.48;;;3.40;99.90;;;;;;5081164;28;20224;-49
2022/02/07 08:11:35;;;;;;;2.00;1.38;;;3.40;99.90;;;;;;5081303;28;20529;-49
2022/02/07 08:14:04;;;;;;;1.60;1.48;;;3.30;99.90;;;;;;5080937;28;20197;-47
2022/02/07 08:16:32;;;;;;;2.35;2.15;;;3.30;99.90;;;;;;5081006;28;20547;-46
2022/02/07 08:19:06;;;;;;;1.20;1.10;;;3.50;99.90;;;;;;5081766;28;20231;-48
2022/02/07 08:21:36;;;;;;;5.22;1.40;;;3.60;99.90;;;;;;5081238;28;20228;-46
2022/02/07 08:24:06;;;;;;;1.17;1.08;;;3.70;99.90;;;;;;5080866;28;20240;-50
2022/02/07 08:26:33;;;;;;;1.45;1.13;;;3.80;99.90;;;;;;5080469;28;20222;-47
2022/02/07 08:29:01;;;;;;;12.50;1.60;;;3.90;99.90;;;;;;5080747;28;20201;-46
2022/02/07 08:31:28;;;;;;;1.23;1.13;;;4.00;99.90;;;;;;5080357;28;20527;-50
2022/02/07 08:33:55;;;;;;;2.25;1.63;;;4.10;99.90;;;;;;5081056;28;20279;-48
2022/02/07 08:36:23;;;;;;;1.45;1.10;;;4.20;99.90;;;;;;5080497;28;20217;-48
2022/02/07 08:38:51;;;;;;;2.28;1.30;;;4.30;99.90;;;;;;5080963;28;20286;-46
2022/02/07 08:41:19;;;;;;;1.55;1.45;;;4.40;99.90;;;;;;5080070;28;20201;-46
2022/02/07 08:43:46;;;;;;;3.80;1.55;;;4.40;99.90;;;;;;5081275;28;20492;-48
2022/02/07 08:46:14;;;;;;;3.30;1.17;;;4.10;99.90;;;;;;5080682;28;20375;-50
2022/02/07 08:48:41;;;;;;;5.47;1.83;;;3.90;99.90;;;;;;5080650;28;20235;-49
2022/02/07 08:51:09;;;;;;;2.38;1.52;;;3.80;99.90;;;;;;5080067;28;20201;-47
2022/02/07 08:53:41;;;;;;;1.00;0.90;;;3.70;99.90;;;;;;5080060;28;20398;-52
2022/02/07 08:56:09;;;;;;;0.90;0.85;;;3.70;99.90;;;;;;5080487;28;20230;-45
2022/02/07 08:58:40;;;;;;;2.40;1.60;;;3.70;99.90;;;;;;5080243;28;20266;-46
2022/02/07 09:01:26;;;;;;;2.60;1.10;;;3.90;99.90;;;;;;5080044;28;20228;-48
2022/02/07 09:09:25;;;;;;;1.85;1.13;;;3.50;99.90;;;;;;5064297;28;20240;-50
2022/02/07 09:11:52;;;;;;;3.58;1.45;;;3.50;99.90;;;;;;5079882;28;20232;-48
2022/02/07 09:14:26;;;;;;;1.92;1.63;;;3.60;99.90;;;;;;5079843;28;20196;-47
2022/02/07 09:16:54;;;;;;;6.10;1.35;;;4.20;99.90;;;;;;5080034;28;20398;-47
2022/02/07 09:19:21;;;;;;;5.03;1.70;;;4.30;99.90;;;;;;5079526;28;20202;-47
2022/02/07 09:21:49;;;;;;;2.92;1.20;;;4.50;99.90;;;;;;5085284;28;20202;-50
2022/02/07 09:24:17;;;;;;;3.30;1.40;;;4.30;99.90;;;;;;5085747;28;20201;-53
2022/02/07 09:26:44;;;;;;;1.33;1.23;;;4.70;99.90;;;;;;5066615;28;20560;-55
2022/02/07 09:29:11;;;;;;;1.75;1.10;;;4.80;99.90;;;;;;5064867;28;20203;-46
2022/02/07 09:31:39;;;;;;;1.15;1.05;;;4.50;99.90;;;;;;5061754;28;20238;-45
2022/02/07 09:34:06;;;;;;;2.00;1.45;;;4.40;99.90;;;;;;5066585;28;20199;-49
2022/02/07 09:36:33;;;;;;;1.00;0.90;;;4.40;99.90;;;;;;5063123;28;20246;-45
2022/02/07 09:39:00;;;;;;;1.85;1.17;;;4.50;99.90;;;;;;5072894;28;20202;-53
2022/02/07 09:41:31;;;;;;;9.30;1.23;;;4.40;99.90;;;;;;5080341;28;20209;-53
2022/02/07 09:44:02;;;;;;;2.42;1.58;;;4.40;99.90;;;;;;5077108;28;20197;-51
2022/02/07 09:46:35;;;;;;;3.72;1.58;;;4.40;99.90;;;;;;5062082;28;20221;-46
2022/02/07 09:49:04;;;;;;;2.60;1.40;;;4.50;99.90;;;;;;5063150;28;20206;-55
2022/02/07 09:51:32;;;;;;;1.20;1.10;;;4.50;99.90;;;;;;5061870;28;20201;-47
2022/02/07 09:53:59;;;;;;;1.52;1.42;;;4.70;99.90;;;;;;5072261;28;20197;-54
2022/02/07 09:56:26;;;;;;;1.20;0.98;;;4.70;99.90;;;;;;5072740;28;20525;-48
2022/02/07 09:58:54;;;;;;;2.10;1.10;;;4.80;99.90;;;;;;5074268;28;20501;-48
2022/02/07 10:01:29;;;;;;;2.22;1.45;;;5.00;99.90;;;;;;5078335;28;20205;-46
2022/02/07 10:04:10;;;;;;;2.35;0.90;;;5.00;99.90;;;;;;5080342;28;20521;-46
2022/02/07 10:09:21;;;;;;;1.35;0.80;;;4.90;99.90;;;;;;5079656;28;20262;-53
2022/02/07 10:14:30;;;;;;;3.40;1.33;;;5.20;99.90;;;;;;5079207;28;20213;-46
2022/02/07 10:39:14;;;;;;;11.02;2.05;;;5.00;99.90;;;;;;5079061;28;20208;-48
2022/02/07 10:42:44;;;;;;;2.97;1.63;;;4.90;99.90;;;;;;5079000;28;20248;-45
2022/02/07 10:44:48;;;;;;;2.25;1.35;;;4.80;99.90;;;;;;5068616;28;20522;-53
2022/02/07 10:50:12;;;;;;;5.13;1.35;;;4.70;99.90;;;;;;5078886;28;20266;-48
2022/02/07 10:52:51;;;;;;;10.75;1.88;;;4.80;99.90;;;;;;5078681;28;20595;-45
2022/02/07 10:55:31;;;;;;;1.70;0.90;;;4.90;99.90;;;;;;5078679;28;20197;-46
2022/02/07 10:58:02;;;;;;;6.22;1.42;;;5.10;99.90;;;;;;5078524;28;20198;-50
2022/02/07 11:00:38;;;;;;;1.98;1.10;;;5.20;99.90;;;;;;5082712;28;20205;-47
2022/02/07 11:03:10;;;;;;;0.63;0.60;;;5.20;99.90;;;;;;5078782;28;20202;-53
2022/02/07 11:05:46;;;;;;;2.25;1.00;;;5.20;99.90;;;;;;5079123;28;20600;-45
2022/02/07 11:14:08;;;;;;;5.07;1.52;;;5.50;99.90;;;;;;5078709;28;20225;-50
2022/02/07 11:19:30;;;;;;;4.07;1.05;;;5.20;99.90;;;;;;5078787;28;20510;-50
2022/02/07 11:25:06;;;;;;;3.38;1.10;;;4.90;99.90;;;;;;5082367;28;20191;-46
2022/02/07 11:27:51;;;;;;;1.13;1.02;;;5.00;99.90;;;;;;5082145;28;20218;-49
2022/02/07 11:30:34;;;;;;;2.63;1.48;;;5.30;99.90;;;;;;5082457;28;20201;-50
2022/02/07 11:33:02;;;;;;;2.25;1.95;;;5.60;99.90;;;;;;5081725;28;20293;-49
2022/02/07 11:35:49;;;;;;;2.05;1.00;;;5.70;99.90;;;;;;5082117;28;20393;-45
2022/02/07 11:38:18;;;;;;;0.60;0.60;;;5.70;99.90;;;;;;5082086;28;20202;-50
2022/02/07 11:41:03;;;;;;;2.45;0.90;;;5.60;99.90;;;;;;5082078;28;20205;-47
2022/02/07 11:43:37;;;;;;;1.50;0.90;;;5.70;99.90;;;;;;5081803;28;20209;-47
2022/02/07 11:46:10;;;;;;;0.70;0.70;;;5.90;99.90;;;;;;5082215;28;20289;-50
2022/02/07 11:48:49;;;;;;;2.88;1.30;;;5.80;99.90;;;;;;5082374;28;20236;-48
2022/02/07 11:51:20;;;;;;;1.58;1.02;;;5.90;99.90;;;;;;5082309;28;20205;-50
2022/02/07 11:53:52;;;;;;;4.55;1.48;;;5.90;99.90;;;;;;5082010;28;20520;-48
2022/02/07 11:56:28;;;;;;;1.30;0.75;;;6.00;99.90;;;;;;5081143;28;20401;-47
2022/02/07 11:59:01;;;;;;;1.50;1.25;;;6.10;99.90;;;;;;5081239;28;20208;-46
2022/02/07 12:02:00;;;;;;;5.28;1.10;;;6.20;99.90;;;;;;5081619;28;20229;-51
2022/02/07 12:04:43;;;;;;;1.42;1.33;;;6.30;99.90;;;;;;5061627;28;20560;-46
2022/02/07 12:07:10;;;;;;;4.45;0.80;;;6.20;99.90;;;;;;5078739;28;20218;-48
2022/02/07 12:12:42;;;;;;;2.88;0.80;;;6.30;99.90;;;;;;5073888;28;20236;-46
2022/02/07 12:15:13;;;;;;;3.30;1.70;;;6.20;99.90;;;;;;5080416;28;20199;-50
2022/02/07 12:17:44;;;;;;;6.25;1.20;;;6.10;99.90;;;;;;5081966;28;20416;-46
2022/02/07 12:20:14;;;;;;;1.20;1.10;;;6.10;99.90;;;;;;5081471;28;20198;-45
2022/02/07 12:23:06;;;;;;;6.72;1.30;;;6.10;99.90;;;;;;5082081;28;20451;-48
2022/02/07 12:25:42;;;;;;;1.58;0.90;;;6.10;99.90;;;;;;5083107;28;20217;-47
2022/02/07 12:28:27;;;;;;;1.92;1.17;;;6.00;99.90;;;;;;5081058;28;20244;-47
2022/02/07 12:31:09;;;;;;;1.70;1.23;;;5.90;99.90;;;;;;5081195;28;20210;-52
2022/02/07 12:33:38;;;;;;;10.95;2.17;;;5.90;99.90;;;;;;5081137;28;20548;-48
2022/02/07 12:36:06;;;;;;;3.53;0.90;;;5.90;99.90;;;;;;5080807;28;20537;-48
2022/02/07 12:38:37;;;;;;;1.30;1.20;;;5.90;99.90;;;;;;5081802;28;20381;-47
2022/02/07 12:41:08;;;;;;;1.08;0.80;;;6.10;99.90;;;;;;5080586;28;20252;-49
2022/02/07 12:43:39;;;;;;;2.58;1.65;;;6.10;99.90;;;;;;5080960;28;20230;-49
2022/02/07 12:46:10;;;;;;;1.33;0.95;;;6.20;99.90;;;;;;5080344;28;20292;-50
2022/02/07 12:48:42;;;;;;;1.10;1.00;;;6.30;99.90;;;;;;5080698;28;20210;-48
2022/02/07 12:51:10;;;;;;;6.10;1.38;;;6.50;99.90;;;;;;5079916;28;20201;-49
2022/02/07 12:53:37;;;;;;;3.15;1.08;;;6.50;99.90;;;;;;5080291;28;20211;-47
2022/02/07 12:56:05;;;;;;;2.80;1.50;;;6.40;99.90;;;;;;5080186;28;20276;-51
2022/02/07 12:58:36;;;;;;;3.88;1.75;;;6.50;99.90;;;;;;5080292;28;20223;-50
2022/02/07 13:01:42;;;;;;;1.08;1.00;;;6.50;99.90;;;;;;5080993;28;20209;-51
2022/02/07 13:04:20;;;;;;;3.00;1.48;;;6.20;99.90;;;;;;5019293;28;20247;-49
2022/02/07 13:06:54;;;;;;;1.27;1.17;;;5.80;99.90;;;;;;5071641;28;20218;-47
2022/02/07 13:09:24;;;;;;;4.30;1.10;;;5.20;99.90;;;;;;5080755;28;20278;-48
2022/02/07 13:12:02;;;;;;;6.10;1.90;;;4.80;99.90;;;;;;5081918;28;20229;-51
2022/02/07 13:14:40;;;;;;;3.95;1.50;;;4.50;99.90;;;;;;5081443;28;20218;-52
2022/02/07 13:17:09;;;;;;;4.03;1.88;;;4.20;99.90;;;;;;5081657;28;20217;-48
2022/02/07 13:19:39;;;;;;;1.30;1.20;;;4.10;99.90;;;;;;5081383;28;20209;-53
2022/02/07 13:22:07;;;;;;;1.23;1.15;;;4.00;99.90;;;;;;5082116;28;20198;-51
2022/02/07 13:24:36;;;;;;;4.53;1.95;;;3.90;99.90;;;;;;5080519;28;20206;-53
2022/02/07 13:27:08;;;;;;;1.40;1.30;;;3.90;99.90;;;;;;5062311;28;20226;-52
2022/02/07 13:29:45;;;;;;;2.95;1.50;;;4.00;99.90;;;;;;5080019;28;20252;-50
2022/02/07 13:32:28;;;;;;;3.40;1.65;;;4.20;99.90;;;;;;5072259;28;20209;-50
2022/02/07 13:35:12;;;;;;;4.55;2.35;;;4.40;99.90;;;;;;5079762;28;20389;-47
2022/02/07 13:37:41;;;;;;;10.73;2.92;;;4.60;99.90;;;;;;5079976;28;20221;-51
2022/02/07 13:40:21;;;;;;;2.63;1.58;;;4.60;99.90;;;;;;5079970;28;20198;-53
2022/02/07 13:42:50;;;;;;;1.48;1.30;;;4.60;99.90;;;;;;5079005;28;20198;-47
2022/02/07 13:45:23;;;;;;;3.90;2.22;;;4.60;99.90;;;;;;5079692;28;20207;-49
2022/02/07 13:47:55;;;;;;;9.27;1.80;;;4.50;99.90;;;;;;5081085;28;20268;-47
2022/02/07 13:50:28;;;;;;;3.05;1.45;;;4.50;99.90;;;;;;5081672;28;20201;-52
2022/02/07 13:53:02;;;;;;;11.68;2.35;;;4.70;99.90;;;;;;5081224;28;20512;-51
2022/02/07 13:55:40;;;;;;;3.40;1.23;;;4.70;99.90;;;;;;5080936;28;20221;-50
2022/02/07 13:58:11;;;;;;;5.30;2.00;;;4.70;99.90;;;;;;5079334;28;20216;-53
2022/02/07 14:00:52;;;;;;;7.65;2.75;;;4.70;99.90;;;;;;5080268;28;20203;-50
2022/02/07 14:03:22;;;;;;;3.08;1.27;;;4.70;99.90;;;;;;5072200;28;20255;-54
2022/02/07 14:05:53;;;;;;;1.55;1.45;;;4.70;99.90;;;;;;5080197;28;20226;-47
2022/02/07 14:08:34;;;;;;;2.38;1.55;;;4.70;99.90;;;;;;5080878;28;20275;-52
2022/02/07 14:11:31;;;;;;;2.10;1.38;;;4.70;99.90;;;;;;5080415;28;20279;-50
2022/02/07 14:14:05;;;;;;;1.90;1.30;;;4.70;99.90;;;;;;5076943;28;20218;-52
2022/02/07 14:16:33;;;;;;;2.28;1.58;;;4.70;99.90;;;;;;5060410;28;20282;-45
2022/02/07 14:19:02;;;;;;;3.13;2.58;;;4.80;99.90;;;;;;5059958;28;20213;-49
2022/02/07 14:21:33;;;;;;;7.03;1.90;;;4.90;99.90;;;;;;5059109;28;20199;-45
2022/02/07 14:24:00;;;;;;;1.67;1.58;;;4.90;99.90;;;;;;5059102;28;20497;-52
2022/02/07 14:26:48;;;;;;;9.02;4.05;;;5.00;99.90;;;;;;5058400;28;20414;-51
2022/02/07 14:29:15;;;;;;;3.08;1.35;;;5.00;99.90;;;;;;5059658;28;20597;-48
2022/02/07 14:31:43;;;;;;;5.03;2.40;;;5.10;99.90;;;;;;5075767;28;20202;-48
2022/02/07 14:34:10;;;;;;;4.88;1.63;;;5.10;99.90;;;;;;5071862;28;20227;-49
2022/02/07 14:36:38;;;;;;;4.60;1.85;;;5.10;99.90;;;;;;5067325;28;20261;-49
2022/02/07 14:39:08;;;;;;;3.33;1.88;;;5.10;99.90;;;;;;5078650;28;20195;-52
2022/02/07 14:41:36;;;;;;;2.40;1.52;;;5.20;99.90;;;;;;5075905;28;20244;-48
2022/02/07 14:44:04;;;;;;;5.18;1.95;;;5.20;99.90;;;;;;5078891;28;20206;-47
2022/02/07 14:46:50;;;;;;;2.95;1.50;;;5.20;99.90;;;;;;5070054;28;20537;-49
2022/02/07 14:49:17;;;;;;;2.80;1.52;;;5.30;99.90;;;;;;5069538;28;20207;-46
2022/02/07 14:51:45;;;;;;;4.57;1.75;;;5.30;99.90;;;;;;5070882;28;20199;-49
2022/02/07 14:54:16;;;;;;;3.75;1.35;;;5.30;99.90;;;;;;5071114;28;20238;-52
2022/02/07 14:56:44;;;;;;;7.95;1.98;;;5.30;99.90;;;;;;5080790;28;20264;-47
2022/02/07 14:59:15;;;;;;;7.43;1.88;;;5.30;99.90;;;;;;5080601;28;20207;-51
2022/02/07 15:01:44;;;;;;;8.32;2.15;;;5.30;99.90;;;;;;5075701;28;20221;-55
2022/02/07 15:04:11;;;;;;;4.55;1.63;;;5.30;99.90;;;;;;5075932;28;20210;-49
2022/02/07 15:06:43;;;;;;;1.08;0.98;;;5.30;99.90;;;;;;5077244;28;20244;-46
2022/02/07 15:09:10;;;;;;;4.60;1.75;;;5.30;99.90;;;;;;5081725;28;20207;-49
2022/02/07 15:11:38;;;;;;;3.60;1.40;;;5.30;99.90;;;;;;5081438;28;20206;-50
2022/02/07 15:14:05;;;;;;;1.92;1.38;;;5.40;99.90;;;;;;5080773;28;20230;-50
2022/02/07 15:16:33;;;;;;;3.92;2.40;;;5.40;99.90;;;;;;5080710;28;20229;-48
2022/02/07 15:19:00;;;;;;;2.58;1.48;;;5.40;99.90;;;;;;5079966;28;20206;-49
2022/02/07 15:21:28;;;;;;;4.68;1.75;;;5.30;99.90;;;;;;5081964;28;20194;-48
2022/02/07 15:23:56;;;;;;;2.92;1.73;;;5.40;99.90;;;;;;5081723;28;20221;-47
2022/02/07 15:26:24;;;;;;;3.80;2.33;;;5.40;99.90;;;;;;5081374;28;20220;-46
2022/02/07 15:28:54;;;;;;;7.85;1.90;;;5.30;99.90;;;;;;5082291;28;20243;-47
2022/02/07 15:31:23;;;;;;;2.65;1.70;;;5.40;99.90;;;;;;5081713;28;20206;-46
2022/02/07 15:33:51;;;;;;;7.70;2.20;;;5.40;99.90;;;;;;5081430;28;20222;-52
2022/02/07 15:36:20;;;;;;;4.30;1.60;;;5.50;99.90;;;;;;5081842;28;20238;-47
2022/02/07 15:38:48;;;;;;;8.55;2.67;;;5.50;99.90;;;;;;5082311;28;20198;-50
2022/02/07 15:41:15;;;;;;;9.30;2.05;;;5.60;99.90;;;;;;5083534;28;20262;-45
2022/02/07 15:43:42;;;;;;;8.85;3.28;;;5.60;99.90;;;;;;5081911;28;20202;-48
2022/02/07 15:46:10;;;;;;;10.65;3.63;;;5.60;99.90;;;;;;5079327;28;20442;-56
2022/02/07 15:48:37;;;;;;;6.97;2.10;;;5.40;99.90;;;;;;5065497;28;20225;-47
2022/02/07 15:51:05;;;;;;;6.95;2.45;;;5.30;99.90;;;;;;5067754;28;20505;-52
2022/02/07 15:53:33;;;;;;;4.97;2.10;;;5.10;99.90;;;;;;5065338;28;20216;-50